Time;durP1;ratioP1;P1;durP2;ratioP2;P2;SDS_P1;SDS_P2;PMS_P1;PMS_P2;Temp;Humidity;BMP_temperature;BMP_pressure;BME280_temperature;BME280_humidity;BME280_pressure;Samples;Min_cycle;Max_cycle;Signal;HPM_P1;HPM_P2
2022/11/13 00:02:20;;;;;;;0.10;0.10;;;;;;;;;;5090210;28;20529;-72
2022/11/13 00:05:04;;;;;;;0.17;0.17;;;;;;;;;;5090281;28;20047;-71
2022/11/13 00:07:48;;;;;;;0.10;0.10;;;;;;;;;;5090140;28;20101;-70
2022/11/13 00:10:33;;;;;;;0.20;0.20;;;;;;;;;;5090448;28;20050;-71
2022/11/13 00:13:17;;;;;;;6.18;5.78;;;;;;;;;;5092412;28;20070;-73
2022/11/13 00:16:05;;;;;;;0.52;0.52;;;;;;;;;;5104899;28;20046;-71
2022/11/13 00:18:49;;;;;;;0.90;0.65;;;;;;;;;;5104894;28;20093;-71
2022/11/13 00:21:33;;;;;;;0.13;0.13;;;;;;;;;;5093911;28;20043;-71
2022/11/13 00:24:17;;;;;;;0.30;0.30;;;;;;;;;;5094356;28;20561;-71
2022/11/13 00:27:01;;;;;;;0.10;0.10;;;;;;;;;;5094553;28;20035;-72
2022/11/13 00:29:45;;;;;;;1.17;1.17;;;;;;;;;;5094441;28;20084;-73
2022/11/13 00:32:29;;;;;;;0.10;0.10;;;;;;;;;;5094405;28;20067;-72
2022/11/13 00:35:14;;;;;;;0.22;0.22;;;;;;;;;;5093730;28;20055;-72
2022/11/13 00:37:59;;;;;;;0.10;0.10;;;;;;;;;;5094185;28;20078;-73
2022/11/13 00:40:43;;;;;;;0.40;0.40;;;;;;;;;;5100116;28;20430;-72
2022/11/13 00:43:27;;;;;;;0.10;0.10;;;;;;;;;;5111973;28;20082;-71
2022/11/13 00:46:11;;;;;;;1.95;1.85;;;;;;;;;;5114281;28;20165;-72
2022/11/13 00:48:55;;;;;;;0.22;0.22;;;;;;;;;;5114289;28;20050;-72
2022/11/13 00:51:39;;;;;;;0.10;0.10;;;;;;;;;;5114095;28;20039;-71
2022/11/13 00:54:23;;;;;;;2.58;2.47;;;;;;;;;;5114093;28;20448;-72
2022/11/13 00:57:07;;;;;;;0.10;0.10;;;;;;;;;;5101255;28;20051;-73
2022/11/13 00:59:51;;;;;;;0.40;0.40;;;;;;;;;;5092391;28;20039;-72
2022/11/13 01:02:35;;;;;;;0.10;0.10;;;;;;;;;;5093836;28;20042;-72
2022/11/13 01:05:19;;;;;;;1.25;1.20;;;;;;;;;;5093377;28;20532;-73
2022/11/13 01:08:04;;;;;;;3.03;2.83;;;;;;;;;;5093704;28;20054;-72
2022/11/13 01:10:49;;;;;;;0.30;0.30;;;;;;;;;;5093336;28;20043;-72
2022/11/13 01:13:33;;;;;;;0.10;0.10;;;;;;;;;;5093926;28;20525;-72
2022/11/13 01:16:19;;;;;;;0.38;0.38;;;;;;;;;;5093468;28;20047;-73
2022/11/13 01:19:03;;;;;;;0.10;0.10;;;;;;;;;;5093584;28;20038;-72
2022/11/13 01:21:47;;;;;;;0.20;0.20;;;;;;;;;;5096974;28;20043;-72
2022/11/13 01:24:32;;;;;;;0.10;0.10;;;;;;;;;;5098639;28;20047;-72
2022/11/13 01:27:16;;;;;;;0.10;0.10;;;;;;;;;;5101040;28;20043;-72
2022/11/13 01:30:01;;;;;;;0.10;0.10;;;;;;;;;;5113877;28;20390;-72
2022/11/13 01:32:46;;;;;;;0.10;0.10;;;;;;;;;;5113377;28;20414;-72
2022/11/13 01:35:30;;;;;;;0.20;0.20;;;;;;;;;;5113569;28;20113;-71
2022/11/13 01:38:14;;;;;;;0.10;0.10;;;;;;;;;;5113851;28;20391;-70
2022/11/13 01:40:58;;;;;;;0.30;0.30;;;;;;;;;;5113579;28;20081;-71
2022/11/13 01:43:42;;;;;;;0.10;0.10;;;;;;;;;;5113520;28;20085;-71
2022/11/13 01:46:33;;;;;;;0.55;0.40;;;;;;;;;;5117808;28;20397;-70
2022/11/13 01:49:20;;;;;;;0.10;0.10;;;;;;;;;;5117639;28;20505;-71
2022/11/13 01:52:07;;;;;;;0.10;0.10;;;;;;;;;;5117763;28;20101;-70
2022/11/13 01:54:54;;;;;;;0.45;0.45;;;;;;;;;;5117441;28;20127;-71
2022/11/13 01:57:38;;;;;;;0.10;0.10;;;;;;;;;;5104496;28;20124;-71
2022/11/13 02:00:22;;;;;;;0.10;0.10;;;;;;;;;;5097174;28;20487;-70
2022/11/13 02:03:07;;;;;;;0.10;0.10;;;;;;;;;;5097196;28;20042;-72
2022/11/13 02:05:52;;;;;;;0.10;0.10;;;;;;;;;;5097036;28;20452;-72
2022/11/13 02:08:36;;;;;;;0.95;0.95;;;;;;;;;;5096741;28;20054;-72
2022/11/13 02:11:20;;;;;;;0.10;0.10;;;;;;;;;;5096671;28;20177;-72
2022/11/13 02:14:05;;;;;;;0.10;0.10;;;;;;;;;;5096554;28;20135;-72
2022/11/13 02:16:52;;;;;;;0.30;0.30;;;;;;;;;;5095814;28;20402;-70
2022/11/13 02:19:38;;;;;;;0.10;0.10;;;;;;;;;;5096832;28;20043;-70
2022/11/13 02:22:45;;;;;;;0.30;0.30;;;;;;;;;;5096909;28;20086;-71
2022/11/13 02:25:31;;;;;;;0.10;0.10;;;;;;;;;;5096156;28;20103;-71
2022/11/13 02:28:15;;;;;;;0.75;0.75;;;;;;;;;;5096709;28;20039;-70
2022/11/13 02:31:07;;;;;;;0.85;0.85;;;;;;;;;;5096308;28;20089;-70
2022/11/13 02:33:52;;;;;;;0.10;0.10;;;;;;;;;;5096074;28;20046;-70
2022/11/13 02:36:36;;;;;;;0.10;0.10;;;;;;;;;;5096571;28;20415;-70
2022/11/13 02:39:20;;;;;;;0.10;0.10;;;;;;;;;;5096459;28;20122;-70
2022/11/13 02:42:04;;;;;;;0.10;0.10;;;;;;;;;;5096373;28;20081;-70
2022/11/13 02:44:48;;;;;;;0.10;0.10;;;;;;;;;;5096317;28;20043;-70
2022/11/13 02:47:33;;;;;;;0.10;0.10;;;;;;;;;;5096217;28;20042;-70
2022/11/13 02:50:18;;;;;;;0.10;0.10;;;;;;;;;;5095274;28;20088;-70
2022/11/13 02:53:02;;;;;;;0.10;0.10;;;;;;;;;;5096210;28;20156;-70
2022/11/13 02:55:46;;;;;;;0.10;0.10;;;;;;;;;;5094925;28;20042;-71
2022/11/13 02:58:30;;;;;;;0.40;0.40;;;;;;;;;;5103777;28;20070;-70
2022/11/13 03:01:15;;;;;;;0.10;0.10;;;;;;;;;;5116291;28;20088;-71
2022/11/13 03:03:59;;;;;;;0.10;0.10;;;;;;;;;;5116388;28;20050;-71
2022/11/13 03:06:43;;;;;;;0.10;0.10;;;;;;;;;;5116103;28;20031;-71
2022/11/13 03:09:27;;;;;;;0.10;0.10;;;;;;;;;;5116047;28;20088;-71
2022/11/13 03:12:11;;;;;;;0.10;0.10;;;;;;;;;;5116224;28;20074;-70
2022/11/13 03:14:55;;;;;;;0.13;0.13;;;;;;;;;;5115854;28;20563;-72
2022/11/13 03:17:39;;;;;;;0.20;0.20;;;;;;;;;;5116124;28;20046;-72
2022/11/13 03:20:24;;;;;;;9.55;3.03;;;;;;;;;;5116166;28;20082;-73
2022/11/13 03:23:08;;;;;;;0.10;0.10;;;;;;;;;;5116035;28;20027;-72
2022/11/13 03:25:52;;;;;;;0.45;0.45;;;;;;;;;;5115961;28;20057;-72
2022/11/13 03:28:36;;;;;;;0.10;0.10;;;;;;;;;;5115938;28;20035;-70
2022/11/13 03:31:21;;;;;;;0.10;0.10;;;;;;;;;;5115392;28;20047;-70
2022/11/13 03:34:05;;;;;;;1.00;0.90;;;;;;;;;;5100092;28;20101;-70
2022/11/13 03:36:49;;;;;;;0.10;0.10;;;;;;;;;;5095053;28;20047;-71
2022/11/13 03:39:33;;;;;;;0.68;0.68;;;;;;;;;;5095340;28;20042;-72
2022/11/13 03:42:19;;;;;;;0.10;0.10;;;;;;;;;;5101569;28;20035;-72
2022/11/13 03:45:06;;;;;;;0.10;0.10;;;;;;;;;;5115284;28;20556;-70
2022/11/13 03:47:50;;;;;;;0.10;0.10;;;;;;;;;;5103060;28;20063;-71
2022/11/13 03:50:34;;;;;;;0.10;0.10;;;;;;;;;;5094910;28;20162;-72
2022/11/13 03:53:18;;;;;;;0.10;0.10;;;;;;;;;;5095018;28;20182;-71
2022/11/13 03:56:02;;;;;;;0.30;0.28;;;;;;;;;;5094915;28;20117;-71
2022/11/13 03:58:47;;;;;;;0.10;0.10;;;;;;;;;;5095224;28;20073;-71
2022/11/13 04:01:31;;;;;;;0.10;0.10;;;;;;;;;;5094930;28;20433;-70
2022/11/13 04:04:15;;;;;;;0.10;0.10;;;;;;;;;;5089630;28;20094;-70
2022/11/13 04:07:00;;;;;;;0.20;0.20;;;;;;;;;;5090737;28;20047;-71
2022/11/13 04:09:44;;;;;;;0.10;0.10;;;;;;;;;;5090564;28;20089;-70
2022/11/13 04:12:28;;;;;;;0.10;0.10;;;;;;;;;;5102591;28;20102;-71
2022/11/13 04:15:12;;;;;;;0.10;0.10;;;;;;;;;;5101653;28;20421;-72
2022/11/13 04:17:56;;;;;;;0.20;0.20;;;;;;;;;;5097938;28;20082;-70
2022/11/13 04:20:41;;;;;;;0.22;0.22;;;;;;;;;;5090431;28;20109;-71
2022/11/13 04:23:25;;;;;;;0.95;0.95;;;;;;;;;;5090816;28;20043;-73
2022/11/13 04:26:09;;;;;;;0.10;0.10;;;;;;;;;;5090769;28;20097;-71
2022/11/13 04:28:54;;;;;;;0.20;0.20;;;;;;;;;;5090299;28;20127;-71
2022/11/13 04:31:38;;;;;;;0.20;0.20;;;;;;;;;;5090589;28;20062;-71
2022/11/13 04:34:22;;;;;;;2.63;2.50;;;;;;;;;;5090891;28;20043;-72
2022/11/13 04:37:06;;;;;;;0.10;0.10;;;;;;;;;;5090377;28;20498;-70
2022/11/13 04:39:50;;;;;;;0.10;0.10;;;;;;;;;;5090548;28;20043;-74
2022/11/13 04:42:50;;;;;;;0.10;0.10;;;;;;;;;;5094683;28;20035;-72
2022/11/13 04:45:35;;;;;;;0.20;0.20;;;;;;;;;;5090210;28;20057;-73
2022/11/13 04:48:19;;;;;;;2.35;1.75;;;;;;;;;;5090143;28;20131;-72
2022/11/13 04:51:04;;;;;;;0.40;0.40;;;;;;;;;;5090407;28;20055;-72
2022/11/13 04:53:48;;;;;;;0.10;0.10;;;;;;;;;;5089984;28;20039;-72
2022/11/13 04:56:32;;;;;;;0.10;0.10;;;;;;;;;;5090287;28;20612;-72
2022/11/13 04:59:16;;;;;;;0.10;0.10;;;;;;;;;;5090491;28;20388;-71
2022/11/13 05:02:01;;;;;;;0.10;0.10;;;;;;;;;;5090235;28;20055;-71
2022/11/13 05:04:45;;;;;;;0.10;0.10;;;;;;;;;;5090116;28;20038;-72
2022/11/13 05:07:29;;;;;;;0.82;0.82;;;;;;;;;;5090102;28;20138;-71
2022/11/13 05:10:13;;;;;;;0.22;0.22;;;;;;;;;;5100157;28;20034;-71
2022/11/13 05:12:57;;;;;;;0.10;0.10;;;;;;;;;;5109802;28;20042;-71
2022/11/13 05:15:41;;;;;;;0.20;0.20;;;;;;;;;;5109973;28;20185;-71
2022/11/13 05:18:26;;;;;;;0.43;0.43;;;;;;;;;;5109392;28;20038;-71
2022/11/13 05:21:10;;;;;;;1.30;1.30;;;;;;;;;;5110011;28;20026;-75
2022/11/13 05:23:55;;;;;;;0.30;0.30;;;;;;;;;;5109877;28;20563;-71
2022/11/13 05:26:39;;;;;;;0.47;0.47;;;;;;;;;;5108690;28;20543;-73
2022/11/13 05:29:23;;;;;;;0.10;0.10;;;;;;;;;;5095159;28;20109;-72
2022/11/13 05:32:07;;;;;;;0.20;0.20;;;;;;;;;;5087403;28;20433;-71
2022/11/13 05:34:51;;;;;;;0.10;0.10;;;;;;;;;;5088948;28;20063;-70
2022/11/13 05:37:35;;;;;;;0.25;0.25;;;;;;;;;;5089105;28;20043;-71
2022/11/13 05:40:20;;;;;;;0.10;0.10;;;;;;;;;;5089536;28;20046;-71
2022/11/13 05:43:05;;;;;;;0.10;0.10;;;;;;;;;;5088267;28;20080;-71
2022/11/13 05:45:49;;;;;;;0.30;0.30;;;;;;;;;;5088736;28;20039;-71
2022/11/13 05:48:33;;;;;;;3.03;1.17;;;;;;;;;;5088076;28;20047;-73
2022/11/13 05:51:19;;;;;;;0.10;0.10;;;;;;;;;;5089662;28;20034;-71
2022/11/13 05:54:03;;;;;;;0.20;0.20;;;;;;;;;;5088479;28;20055;-71
2022/11/13 05:56:47;;;;;;;0.10;0.10;;;;;;;;;;5097059;28;20080;-75
2022/11/13 05:59:31;;;;;;;0.20;0.20;;;;;;;;;;5103386;28;20122;-71
2022/11/13 06:02:15;;;;;;;0.15;0.15;;;;;;;;;;5106212;28;20081;-72
2022/11/13 06:05:00;;;;;;;0.47;0.47;;;;;;;;;;5094849;28;20097;-72
2022/11/13 06:07:44;;;;;;;0.10;0.10;;;;;;;;;;5089150;28;20418;-72
2022/11/13 06:10:28;;;;;;;1.40;1.38;;;;;;;;;;5089150;28;20035;-72
2022/11/13 06:13:13;;;;;;;0.30;0.30;;;;;;;;;;5088663;28;20046;-72
2022/11/13 06:16:01;;;;;;;0.70;0.70;;;;;;;;;;5088591;28;20050;-73
2022/11/13 06:18:45;;;;;;;0.20;0.20;;;;;;;;;;5088982;28;20094;-75
2022/11/13 06:21:30;;;;;;;0.10;0.10;;;;;;;;;;5090909;28;20101;-71
2022/11/13 06:24:15;;;;;;;0.10;0.10;;;;;;;;;;5106493;28;20488;-74
2022/11/13 06:26:59;;;;;;;0.10;0.10;;;;;;;;;;5108107;28;20133;-73
2022/11/13 06:29:43;;;;;;;0.10;0.10;;;;;;;;;;5109458;28;20054;-74
2022/11/13 06:32:27;;;;;;;0.40;0.40;;;;;;;;;;5103982;28;20054;-74
2022/11/13 06:35:11;;;;;;;0.30;0.30;;;;;;;;;;5092373;28;20078;-73
2022/11/13 06:37:56;;;;;;;0.10;0.10;;;;;;;;;;5092289;28;20070;-73
2022/11/13 06:40:40;;;;;;;0.10;0.10;;;;;;;;;;5092438;28;20036;-73
2022/11/13 06:43:24;;;;;;;0.10;0.10;;;;;;;;;;5092815;28;20480;-74
2022/11/13 06:46:12;;;;;;;0.10;0.10;;;;;;;;;;5092201;28;20097;-73
2022/11/13 06:48:57;;;;;;;0.30;0.30;;;;;;;;;;5092266;28;20035;-73
2022/11/13 06:51:41;;;;;;;0.22;0.22;;;;;;;;;;5092247;28;20047;-73
2022/11/13 06:54:24;;;;;;;0.20;0.20;;;;;;;;;;5091046;28;20414;-73
2022/11/13 06:57:08;;;;;;;0.10;0.10;;;;;;;;;;5092599;28;20063;-73
2022/11/13 06:59:52;;;;;;;0.47;0.47;;;;;;;;;;5097096;28;20126;-73
2022/11/13 07:02:37;;;;;;;0.68;0.68;;;;;;;;;;5111994;28;20038;-72
2022/11/13 07:05:21;;;;;;;1.20;1.10;;;;;;;;;;5095707;28;20046;-72
2022/11/13 07:08:05;;;;;;;0.45;0.45;;;;;;;;;;5092383;28;20399;-72
2022/11/13 07:10:54;;;;;;;0.10;0.10;;;;;;;;;;5091422;28;20089;-73
2022/11/13 07:13:38;;;;;;;0.17;0.17;;;;;;;;;;5092780;28;20046;-73
2022/11/13 07:16:22;;;;;;;0.10;0.10;;;;;;;;;;5092288;28;20124;-73
2022/11/13 07:19:07;;;;;;;0.10;0.10;;;;;;;;;;5092005;28;20038;-73
2022/11/13 07:21:51;;;;;;;0.30;0.30;;;;;;;;;;5092060;28;20039;-72
2022/11/13 07:24:35;;;;;;;0.10;0.10;;;;;;;;;;5091606;28;20038;-76
2022/11/13 07:27:19;;;;;;;0.30;0.30;;;;;;;;;;5091632;28;20105;-71
2022/11/13 07:30:03;;;;;;;0.10;0.10;;;;;;;;;;5091407;28;20040;-71
2022/11/13 07:32:47;;;;;;;0.10;0.10;;;;;;;;;;5091207;28;20477;-71
2022/11/13 07:35:31;;;;;;;0.25;0.25;;;;;;;;;;5092322;28;20059;-71
2022/11/13 07:38:16;;;;;;;0.10;0.10;;;;;;;;;;5100942;28;20039;-71
2022/11/13 07:41:00;;;;;;;0.10;0.10;;;;;;;;;;5101550;28;20049;-74
2022/11/13 07:43:44;;;;;;;0.10;0.10;;;;;;;;;;5097407;28;20034;-71
2022/11/13 07:46:28;;;;;;;0.10;0.10;;;;;;;;;;5094049;28;20039;-74
2022/11/13 07:49:12;;;;;;;3.80;2.08;;;;;;;;;;5091869;28;20066;-71
2022/11/13 07:51:57;;;;;;;0.22;0.22;;;;;;;;;;5094012;28;20441;-72
2022/11/13 07:54:41;;;;;;;0.20;0.20;;;;;;;;;;5090883;28;20431;-72
2022/11/13 07:57:27;;;;;;;0.10;0.10;;;;;;;;;;5090949;28;20040;-71
2022/11/13 08:00:12;;;;;;;0.15;0.15;;;;;;;;;;5090959;28;20504;-71
2022/11/13 08:02:56;;;;;;;1.15;1.08;;;;;;;;;;5100182;28;20078;-71
2022/11/13 08:05:41;;;;;;;1.60;1.20;;;;;;;;;;5111363;28;20112;-73
2022/11/13 08:08:25;;;;;;;0.20;0.20;;;;;;;;;;5111058;28;20070;-72
2022/11/13 08:11:09;;;;;;;0.20;0.20;;;;;;;;;;5101430;28;20078;-72
2022/11/13 08:13:53;;;;;;;0.20;0.20;;;;;;;;;;5090447;28;20039;-74
2022/11/13 08:16:38;;;;;;;0.20;0.20;;;;;;;;;;5090465;28;20039;-73
2022/11/13 08:19:22;;;;;;;0.10;0.10;;;;;;;;;;5100343;28;20043;-72
2022/11/13 08:22:06;;;;;;;0.20;0.20;;;;;;;;;;5095599;28;20109;-73
2022/11/13 08:24:52;;;;;;;0.60;0.60;;;;;;;;;;5101045;28;20046;-75
2022/11/13 08:27:37;;;;;;;0.20;0.20;;;;;;;;;;5088525;28;20097;-75
2022/11/13 08:30:22;;;;;;;0.20;0.20;;;;;;;;;;5088322;28;20034;-74
2022/11/13 08:33:07;;;;;;;0.20;0.20;;;;;;;;;;5097225;28;20051;-74
2022/11/13 08:35:56;;;;;;;0.50;0.50;;;;;;;;;;5088398;28;20051;-73
2022/11/13 08:38:40;;;;;;;0.30;0.30;;;;;;;;;;5087706;28;20039;-74
2022/11/13 08:41:24;;;;;;;0.30;0.30;;;;;;;;;;5087966;28;20097;-75
2022/11/13 08:44:09;;;;;;;0.20;0.20;;;;;;;;;;5088089;28;20399;-73
2022/11/13 08:46:53;;;;;;;0.20;0.20;;;;;;;;;;5091002;28;20039;-74
2022/11/13 08:49:38;;;;;;;7.75;7.03;;;;;;;;;;5108317;28;20038;-73
2022/11/13 08:52:21;;;;;;;0.20;0.20;;;;;;;;;;5108304;28;20082;-74
2022/11/13 08:55:06;;;;;;;0.30;0.30;;;;;;;;;;5109134;28;20101;-72
2022/11/13 08:57:50;;;;;;;0.20;0.20;;;;;;;;;;5110479;28;20139;-74
2022/11/13 09:00:34;;;;;;;0.28;0.28;;;;;;;;;;5110187;28;20085;-74
2022/11/13 09:03:18;;;;;;;4.78;3.40;;;;;;;;;;5110171;28;20030;-73
2022/11/13 09:06:06;;;;;;;0.47;0.47;;;;;;;;;;5110368;28;20039;-74
2022/11/13 09:08:51;;;;;;;0.20;0.20;;;;;;;;;;5109892;28;20070;-73
2022/11/13 09:11:35;;;;;;;0.50;0.50;;;;;;;;;;5109376;28;20038;-73
2022/11/13 09:14:19;;;;;;;0.60;0.60;;;;;;;;;;5095152;28;20042;-74
2022/11/13 09:17:03;;;;;;;0.30;0.30;;;;;;;;;;5095459;28;20051;-74
2022/11/13 09:19:47;;;;;;;0.20;0.20;;;;;;;;;;5100183;28;20039;-74
2022/11/13 09:22:31;;;;;;;0.40;0.40;;;;;;;;;;5103163;28;20378;-73
2022/11/13 09:25:15;;;;;;;0.20;0.20;;;;;;;;;;5096711;28;20047;-74
2022/11/13 09:28:00;;;;;;;0.20;0.20;;;;;;;;;;5092172;28;20062;-73
2022/11/13 09:30:44;;;;;;;0.20;0.20;;;;;;;;;;5097507;28;20043;-73
2022/11/13 09:33:29;;;;;;;1.42;0.45;;;;;;;;;;5106597;28;20051;-73
2022/11/13 09:36:14;;;;;;;0.20;0.20;;;;;;;;;;5103271;28;20055;-75
2022/11/13 09:38:59;;;;;;;0.20;0.20;;;;;;;;;;5109817;28;20039;-75
2022/11/13 09:41:49;;;;;;;0.20;0.20;;;;;;;;;;5095451;28;20058;-74
2022/11/13 09:44:35;;;;;;;0.28;0.28;;;;;;;;;;5096965;28;20092;-76
2022/11/13 09:47:20;;;;;;;0.20;0.20;;;;;;;;;;5096693;28;20047;-74
2022/11/13 09:50:04;;;;;;;0.20;0.20;;;;;;;;;;5101122;28;20034;-75
2022/11/13 09:52:50;;;;;;;0.20;0.20;;;;;;;;;;5106748;28;20043;-73
2022/11/13 09:55:39;;;;;;;0.20;0.20;;;;;;;;;;5107964;28;20402;-72
2022/11/13 09:58:38;;;;;;;0.20;0.20;;;;;;;;;;5091947;28;20043;-73
2022/11/13 10:01:36;;;;;;;0.25;0.25;;;;;;;;;;5094005;28;20078;-73
2022/11/13 10:04:29;;;;;;;0.68;0.68;;;;;;;;;;5097478;28;20077;-72
2022/11/13 10:07:22;;;;;;;0.20;0.20;;;;;;;;;;5113343;28;20081;-73
2022/11/13 10:10:24;;;;;;;0.20;0.20;;;;;;;;;;5113669;28;20042;-73
2022/11/13 10:13:20;;;;;;;0.43;0.38;;;;;;;;;;5113856;28;20066;-73
2022/11/13 10:16:12;;;;;;;0.40;0.40;;;;;;;;;;5111910;28;20096;-73
2022/11/13 10:19:05;;;;;;;0.43;0.43;;;;;;;;;;5097555;28;20093;-73
2022/11/13 10:21:52;;;;;;;1.02;1.02;;;;;;;;;;5105821;28;20096;-73
2022/11/13 10:24:40;;;;;;;0.75;0.73;;;;;;;;;;5094162;28;20074;-73
2022/11/13 10:27:25;;;;;;;0.28;0.28;;;;;;;;;;5090721;28;20619;-73
2022/11/13 10:30:14;;;;;;;0.20;0.20;;;;;;;;;;5090961;28;20394;-73
2022/11/13 10:33:07;;;;;;;0.20;0.20;;;;;;;;;;5089481;28;20143;-72
2022/11/13 10:35:51;;;;;;;0.22;0.22;;;;;;;;;;5099171;28;20062;-73
2022/11/13 10:38:51;;;;;;;0.20;0.20;;;;;;;;;;5090666;28;20124;-73
2022/11/13 10:41:49;;;;;;;0.20;0.20;;;;;;;;;;5092443;28;20054;-73
2022/11/13 10:44:34;;;;;;;0.20;0.20;;;;;;;;;;5099577;28;20599;-73
2022/11/13 10:47:19;;;;;;;0.60;0.60;;;;;;;;;;5100502;28;20081;-73
2022/11/13 10:50:30;;;;;;;0.30;0.30;;;;;;;;;;5089324;28;20132;-74
2022/11/13 10:53:16;;;;;;;0.10;0.10;;;;;;;;;;5089315;28;20693;-73
2022/11/13 10:56:01;;;;;;;0.65;0.40;;;;;;;;;;5092146;28;20085;-73
2022/11/13 10:58:58;;;;;;;0.28;0.28;;;;;;;;;;5090500;28;20449;-73
2022/11/13 11:01:43;;;;;;;1.05;0.82;;;;;;;;;;5092567;28;20067;-74
2022/11/13 11:04:28;;;;;;;0.63;0.47;;;;;;;;;;5092200;28;20059;-72
2022/11/13 11:07:12;;;;;;;0.20;0.20;;;;;;;;;;5092205;28;20132;-74
2022/11/13 11:09:57;;;;;;;0.20;0.20;;;;;;;;;;5091024;28;20039;-73
2022/11/13 11:12:41;;;;;;;0.20;0.20;;;;;;;;;;5102332;28;20439;-73
2022/11/13 11:15:37;;;;;;;0.30;0.30;;;;;;;;;;5112207;28;20099;-74
2022/11/13 11:18:42;;;;;;;0.20;0.20;;;;;;;;;;5110693;28;20437;-74
2022/11/13 11:21:33;;;;;;;0.35;0.35;;;;;;;;;;5112357;28;20042;-74
2022/11/13 11:24:23;;;;;;;0.25;0.25;;;;;;;;;;5111882;28;20047;-74
2022/11/13 11:27:11;;;;;;;0.20;0.20;;;;;;;;;;5112153;28;20555;-73
2022/11/13 11:30:14;;;;;;;0.20;0.20;;;;;;;;;;5112486;28;20403;-73
2022/11/13 11:33:09;;;;;;;0.20;0.20;;;;;;;;;;5111646;28;20124;-73
2022/11/13 11:35:59;;;;;;;0.30;0.30;;;;;;;;;;5112254;28;20083;-73
2022/11/13 11:38:49;;;;;;;0.20;0.20;;;;;;;;;;5111667;28;20403;-74
2022/11/13 11:41:42;;;;;;;0.20;0.20;;;;;;;;;;5111955;28;20078;-72
2022/11/13 11:44:36;;;;;;;0.20;0.20;;;;;;;;;;5111691;28;20531;-72
2022/11/13 11:47:20;;;;;;;0.20;0.20;;;;;;;;;;5110433;28;20038;-74
2022/11/13 11:50:10;;;;;;;0.20;0.20;;;;;;;;;;5111627;28;20116;-73
2022/11/13 11:52:54;;;;;;;0.30;0.30;;;;;;;;;;5111567;28;20058;-74
2022/11/13 11:55:58;;;;;;;0.20;0.20;;;;;;;;;;5111213;28;20042;-73
2022/11/13 11:58:55;;;;;;;0.20;0.20;;;;;;;;;;5110243;28;20053;-73
2022/11/13 12:01:54;;;;;;;0.47;0.40;;;;;;;;;;5111225;28;20046;-73
2022/11/13 12:04:38;;;;;;;;;;;;;;;;;;5111864;28;20050;-73
2022/11/13 12:07:40;;;;;;;0.10;0.10;;;;;;;;;;5110394;28;20048;-73
2022/11/13 12:10:38;;;;;;;1.27;0.95;;;;;;;;;;5111255;28;20045;-74
2022/11/13 12:13:27;;;;;;;0.20;0.20;;;;;;;;;;5111390;28;20168;-74
2022/11/13 12:16:19;;;;;;;1.13;0.63;;;;;;;;;;5111398;28;20046;-74
2022/11/13 12:19:24;;;;;;;1.70;1.02;;;;;;;;;;5110514;28;20034;-74
2022/11/13 12:22:14;;;;;;;0.73;0.52;;;;;;;;;;5110074;28;20394;-75
2022/11/13 12:24:59;;;;;;;1.58;1.00;;;;;;;;;;5111100;28;20051;-75
2022/11/13 12:27:52;;;;;;;0.22;0.22;;;;;;;;;;5111581;28;20080;-73
2022/11/13 12:30:44;;;;;;;0.38;0.38;;;;;;;;;;5110748;28;20084;-74
2022/11/13 12:33:28;;;;;;;0.60;0.50;;;;;;;;;;5110468;28;20215;-73
2022/11/13 12:36:12;;;;;;;1.17;0.60;;;;;;;;;;5110696;28;20235;-74
2022/11/13 12:39:17;;;;;;;4.47;0.82;;;;;;;;;;5110715;28;20043;-73
2022/11/13 12:42:05;;;;;;;0.65;0.28;;;;;;;;;;5098885;28;20038;-74
2022/11/13 12:44:52;;;;;;;1.02;0.73;;;;;;;;;;5090018;28;20078;-73
2022/11/13 12:47:36;;;;;;;0.40;0.40;;;;;;;;;;5090332;28;20043;-74
2022/11/13 12:50:26;;;;;;;0.47;0.32;;;;;;;;;;5103589;28;20058;-73
2022/11/13 12:53:11;;;;;;;2.72;1.52;;;;;;;;;;5099369;28;20172;-73
2022/11/13 12:56:00;;;;;;;1.35;0.85;;;;;;;;;;5097902;28;20079;-75
2022/11/13 12:59:00;;;;;;;0.20;0.20;;;;;;;;;;5097473;28;20038;-74
2022/11/13 13:02:03;;;;;;;0.75;0.50;;;;;;;;;;5094529;28;20030;-74
2022/11/13 13:04:53;;;;;;;0.93;0.60;;;;;;;;;;5109974;28;20046;-74
2022/11/13 13:07:44;;;;;;;0.10;0.10;;;;;;;;;;5097937;28;20043;-74
2022/11/13 13:10:33;;;;;;;0.45;0.30;;;;;;;;;;5105198;28;20123;-75
2022/11/13 13:13:17;;;;;;;;;;;;;;;;;;5092722;28;20517;-75
2022/11/13 13:16:03;;;;;;;0.10;0.10;;;;;;;;;;5094791;28;19977;-75
2022/11/13 13:18:48;;;;;;;0.20;0.20;;;;;;;;;;5095334;28;20162;-73
2022/11/13 13:21:40;;;;;;;0.20;0.20;;;;;;;;;;5106454;28;20100;-74
2022/11/13 13:24:33;;;;;;;0.85;0.82;;;;;;;;;;5109690;28;20085;-75
2022/11/13 13:27:24;;;;;;;0.20;0.20;;;;;;;;;;5109321;28;20089;-74
2022/11/13 13:30:16;;;;;;;0.13;0.13;;;;;;;;;;5100665;28;20113;-75
2022/11/13 13:33:06;;;;;;;0.30;0.30;;;;;;;;;;5096636;28;20055;-74
2022/11/13 13:36:03;;;;;;;0.25;0.20;;;;;;;;;;5092271;28;20038;-74
2022/11/13 13:39:05;;;;;;;0.15;0.15;;;;;;;;;;5088987;28;20097;-74
2022/11/13 13:41:55;;;;;;;0.20;0.20;;;;;;;;;;5095837;28;20048;-74
2022/11/13 13:44:58;;;;;;;0.22;0.22;;;;;;;;;;5092388;28;20047;-76
2022/11/13 13:47:44;;;;;;;0.20;0.20;;;;;;;;;;5101479;28;20042;-75
2022/11/13 13:50:31;;;;;;;0.30;0.30;;;;;;;;;;5105704;28;20038;-75
2022/11/13 13:53:17;;;;;;;0.10;0.10;;;;;;;;;;5102860;28;20052;-75
2022/11/13 13:56:02;;;;;;;0.20;0.20;;;;;;;;;;5097649;28;20409;-75
2022/11/13 13:58:47;;;;;;;0.10;0.10;;;;;;;;;;5091450;28;20128;-77
2022/11/13 14:01:33;;;;;;;0.28;0.28;;;;;;;;;;5103003;28;20050;-75
2022/11/13 14:04:18;;;;;;;0.28;0.20;;;;;;;;;;5112598;28;20039;-74
2022/11/13 14:07:05;;;;;;;0.20;0.20;;;;;;;;;;5113075;28;20038;-74
2022/11/13 14:10:02;;;;;;;0.15;0.15;;;;;;;;;;5104857;28;20488;-74
2022/11/13 14:12:47;;;;;;;0.20;0.20;;;;;;;;;;5111405;28;20027;-77
2022/11/13 14:15:33;;;;;;;3.92;0.30;;;;;;;;;;5107608;28;20683;-76
2022/11/13 14:18:17;;;;;;;1.23;1.23;;;;;;;;;;5101361;28;20039;-76
2022/11/13 14:21:04;;;;;;;0.30;0.30;;;;;;;;;;5111013;28;20507;-76
2022/11/13 14:23:50;;;;;;;0.15;0.15;;;;;;;;;;5107892;28;20043;-77
2022/11/13 14:26:34;;;;;;;0.68;0.50;;;;;;;;;;5101588;28;20154;-77
2022/11/13 14:29:21;;;;;;;0.10;0.10;;;;;;;;;;5101287;28;20035;-76
2022/11/13 14:32:09;;;;;;;0.10;0.10;;;;;;;;;;5111716;28;20055;-76
2022/11/13 14:34:55;;;;;;;0.20;0.20;;;;;;;;;;5099414;28;20425;-77
2022/11/13 14:37:43;;;;;;;0.98;0.98;;;;;;;;;;5111761;28;20051;-76
2022/11/13 14:40:32;;;;;;;0.10;0.10;;;;;;;;;;5109364;28;20116;-79
2022/11/13 14:43:16;;;;;;;;;;;;;;;;;;5109409;28;20050;-78
2022/11/13 14:46:01;;;;;;;0.28;0.28;;;;;;;;;;5098918;28;19958;-75
2022/11/13 14:48:52;;;;;;;0.10;0.10;;;;;;;;;;5096866;28;20035;-76
2022/11/13 14:51:36;;;;;;;0.10;0.10;;;;;;;;;;5096776;28;20437;-76
2022/11/13 14:54:27;;;;;;;0.13;0.13;;;;;;;;;;5092277;28;20101;-75
2022/11/13 14:57:13;;;;;;;0.20;0.20;;;;;;;;;;5091827;28;20040;-75
2022/11/13 15:00:08;;;;;;;0.73;0.40;;;;;;;;;;5091670;28;20399;-75
2022/11/13 15:02:52;;;;;;;0.43;0.35;;;;;;;;;;5091758;28;20165;-76
2022/11/13 15:05:36;;;;;;;0.10;0.10;;;;;;;;;;5092039;28;20447;-75
2022/11/13 15:08:20;;;;;;;0.10;0.10;;;;;;;;;;5091027;28;20104;-79
2022/11/13 15:11:04;;;;;;;0.10;0.10;;;;;;;;;;5091762;28;20067;-76
2022/11/13 15:13:48;;;;;;;0.10;0.10;;;;;;;;;;5091142;28;20046;-76
2022/11/13 15:16:34;;;;;;;0.17;0.17;;;;;;;;;;5090292;28;20514;-78
2022/11/13 15:19:21;;;;;;;0.10;0.10;;;;;;;;;;5091084;28;20047;-76
2022/11/13 15:22:12;;;;;;;0.10;0.10;;;;;;;;;;5091598;28;20495;-76
2022/11/13 15:24:57;;;;;;;0.10;0.10;;;;;;;;;;5090399;28;20082;-76
2022/11/13 15:27:41;;;;;;;0.13;0.13;;;;;;;;;;5109699;28;20175;-76
2022/11/13 15:30:25;;;;;;;0.10;0.10;;;;;;;;;;5111165;28;20089;-76
2022/11/13 15:33:13;;;;;;;0.10;0.10;;;;;;;;;;5101187;28;20206;-76
2022/11/13 15:35:58;;;;;;;0.35;0.35;;;;;;;;;;5092204;28;20047;-75
2022/11/13 15:38:42;;;;;;;0.10;0.10;;;;;;;;;;5091135;28;20093;-76
2022/11/13 15:41:28;;;;;;;0.10;0.10;;;;;;;;;;5091585;28;20046;-76
2022/11/13 15:44:13;;;;;;;0.10;0.10;;;;;;;;;;5091302;28;20058;-78
2022/11/13 15:46:57;;;;;;;0.10;0.10;;;;;;;;;;5090954;28;20123;-76
2022/11/13 15:49:41;;;;;;;0.13;0.13;;;;;;;;;;5091234;28;20042;-76
2022/11/13 15:52:28;;;;;;;0.20;0.20;;;;;;;;;;5091036;28;20085;-76
2022/11/13 15:55:27;;;;;;;0.10;0.10;;;;;;;;;;5091122;28;20502;-76
2022/11/13 15:58:15;;;;;;;0.10;0.10;;;;;;;;;;5091315;28;20095;-76
2022/11/13 16:00:59;;;;;;;0.10;0.10;;;;;;;;;;5110479;28;20402;-76
2022/11/13 16:03:44;;;;;;;0.20;0.20;;;;;;;;;;5111068;28;20035;-76
2022/11/13 16:06:30;;;;;;;0.10;0.10;;;;;;;;;;5108514;28;20442;-77
2022/11/13 16:09:14;;;;;;;0.10;0.10;;;;;;;;;;5110849;28;20088;-79
2022/11/13 16:12:00;;;;;;;0.20;0.20;;;;;;;;;;5109985;28;20089;-77
2022/11/13 16:14:44;;;;;;;0.13;0.13;;;;;;;;;;5102121;28;20085;-77
2022/11/13 16:17:29;;;;;;;0.10;0.10;;;;;;;;;;5118154;28;20058;-80
2022/11/13 16:20:15;;;;;;;0.10;0.10;;;;;;;;;;5116913;28;20050;-75
2022/11/13 16:22:59;;;;;;;0.10;0.10;;;;;;;;;;5117683;28;20123;-76
2022/11/13 16:25:47;;;;;;;0.10;0.10;;;;;;;;;;5103484;28;20061;-76
2022/11/13 16:28:31;;;;;;;0.10;0.10;;;;;;;;;;5110045;28;20274;-78
2022/11/13 16:31:16;;;;;;;0.20;0.20;;;;;;;;;;5102538;28;20123;-74
2022/11/13 16:34:00;;;;;;;0.10;0.10;;;;;;;;;;5100171;28;20108;-76
2022/11/13 16:36:45;;;;;;;0.10;0.10;;;;;;;;;;5093527;28;20428;-75
2022/11/13 16:39:29;;;;;;;0.20;0.20;;;;;;;;;;5100353;28;20146;-74